Tyrone, New York
Current Conditions -  °F | °C
As of 2:53 PM on Sunday 23 Nov 2014 (Local Time) from KPEO Reporting Station
Overcast Overcast  
Wind Chill: 47°   Ceiling: 9000
Heat Index: 49°   Visibility: 10mi
Dew Point: 40°   Wind: 5mph
Humidity: 71%   Direction: 190°S
Pressure: 29.99"   Gusts: NA
Location:  42.41°N, 77.06°W
Report Text: KPEO 231953Z AUTO 19004KT 10SM SCT055 OVC090 09/04 A2999 RMK AO2 RAB10E19 SLP160 P0000 T00940044
Loading
Personal Weather Stations






























Interactive Weather Map New forecast layout! Learn more

10-Day Weather Forecast

Advertisements
Track Severe Weather on mobile